createdAt,value
2022-09-17T00:01:27.209Z,62.14
2022-09-17T00:03:56.619Z,62.26
2022-09-17T00:06:26.147Z,62.80
2022-09-17T00:08:55.245Z,61.92
2022-09-17T00:11:25.986Z,62.43
2022-09-17T00:13:54.754Z,62.94
2022-09-17T00:16:26.153Z,62.03
2022-09-17T00:18:53.988Z,62.19
2022-09-17T00:21:22.280Z,61.95
2022-09-17T00:23:50.182Z,61.78
2022-09-17T00:26:17.985Z,61.89
2022-09-17T00:28:50.620Z,61.74
2022-09-17T00:31:18.653Z,61.34
2022-09-17T00:33:46.547Z,61.67
2022-09-17T00:36:14.458Z,61.21
2022-09-17T00:38:42.349Z,61.08
2022-09-17T00:41:10.439Z,60.73
2022-09-17T00:43:42.885Z,61.13
2022-09-17T00:46:26.950Z,60.90
2022-09-17T00:48:55.818Z,61.12
2022-09-17T00:51:29.997Z,61.23
2022-09-17T00:53:57.909Z,61.44
2022-09-17T00:56:28.891Z,61.88
2022-09-17T00:58:57.188Z,61.87
2022-09-17T01:01:26.480Z,61.34
2022-09-17T01:03:54.319Z,61.68
2022-09-17T01:06:30.425Z,61.63
2022-09-17T01:09:10.981Z,61.64
2022-09-17T01:12:00.298Z,62.05
2022-09-17T01:14:43.641Z,62.22
2022-09-17T01:17:21.208Z,62.23
2022-09-17T01:20:22.535Z,62.54
2022-09-17T01:23:06.965Z,61.94
2022-09-17T01:25:45.480Z,62.63
2022-09-17T01:28:34.015Z,62.74
2022-09-17T01:31:35.014Z,62.64
2022-09-17T01:34:12.298Z,63.24
2022-09-17T01:36:51.045Z,62.68
2022-09-17T01:39:32.357Z,62.47
2022-09-17T01:42:11.436Z,62.98
2022-09-17T01:44:46.466Z,62.50
2022-09-17T01:47:21.316Z,62.35
2022-09-17T01:49:51.726Z,61.92
2022-09-17T01:52:20.698Z,61.92
2022-09-17T01:54:53.779Z,62.39
2022-09-17T01:57:27.941Z,62.02
2022-09-17T02:00:01.121Z,62.46
2022-09-17T02:02:35.482Z,62.68
2022-09-17T02:05:08.595Z,63.04
2022-09-17T02:07:42.176Z,63.09
2022-09-17T02:10:14.653Z,63.22
2022-09-17T02:12:47.626Z,63.06
2022-09-17T02:15:22.127Z,64.18
2022-09-17T02:17:55.772Z,64.63
2022-09-17T02:20:29.924Z,65.95
2022-09-17T02:23:02.998Z,66.25
2022-09-17T02:25:37.061Z,65.84
2022-09-17T02:28:12.807Z,65.88
2022-09-17T02:30:41.111Z,66.75
2022-09-17T02:33:14.891Z,66.36
2022-09-17T02:35:43.499Z,66.56
2022-09-17T02:38:11.468Z,67.40
2022-09-17T02:40:47.319Z,67.04
2022-09-17T02:43:24.583Z,67.07
2022-09-17T02:46:13.397Z,67.39
2022-09-17T02:49:11.690Z,66.88
2022-09-17T02:51:51.388Z,66.45
2022-09-17T02:54:27.740Z,66.57
2022-09-17T02:57:06.078Z,66.19
2022-09-17T02:59:41.888Z,66.44
2022-09-17T03:02:16.508Z,65.93
2022-09-17T03:04:48.627Z,66.26
2022-09-17T03:07:20.005Z,65.84
2022-09-17T03:09:47.867Z,66.04
2022-09-17T03:12:16.442Z,65.66
2022-09-17T03:14:44.205Z,65.70
2022-09-17T03:17:13.010Z,65.49
2022-09-17T03:19:40.787Z,65.06
2022-09-17T03:22:09.946Z,65.11
2022-09-17T03:24:37.726Z,65.34
2022-09-17T03:27:05.939Z,65.00
2022-09-17T03:29:34.497Z,65.09
2022-09-17T03:32:03.741Z,64.22
2022-09-17T03:34:31.610Z,64.69
2022-09-17T03:36:59.392Z,64.68
2022-09-17T03:39:29.452Z,65.12
2022-09-17T03:41:57.377Z,64.02
2022-09-17T03:44:25.227Z,64.50
2022-09-17T03:46:53.859Z,64.62
2022-09-17T03:49:21.659Z,64.40
2022-09-17T03:51:49.414Z,64.14
2022-09-17T03:54:17.603Z,64.16
2022-09-17T03:56:46.827Z,64.11
2022-09-17T03:59:15.215Z,64.13
2022-09-17T04:01:43.159Z,64.82
2022-09-17T04:04:11.032Z,64.71
2022-09-17T04:06:38.912Z,65.75
2022-09-17T04:09:06.806Z,65.54
2022-09-17T04:11:34.626Z,65.21
2022-09-17T04:14:04.366Z,65.24
2022-09-17T04:16:32.248Z,65.00
2022-09-17T04:19:00.273Z,64.95
2022-09-17T04:21:28.174Z,65.72
2022-09-17T04:23:55.971Z,65.17
2022-09-17T04:26:23.751Z,65.79
2022-09-17T04:28:51.548Z,65.51
2022-09-17T04:31:25.053Z,66.30
2022-09-17T04:33:52.931Z,65.68
2022-09-17T04:36:20.930Z,65.90
2022-09-17T04:38:49.268Z,66.07
2022-09-17T04:41:17.057Z,66.00
2022-09-17T04:43:44.874Z,66.75
2022-09-17T04:46:14.198Z,66.22
2022-09-17T04:48:43.623Z,65.99
2022-09-17T04:51:11.399Z,67.10
2022-09-17T04:53:39.279Z,66.71
2022-09-17T04:56:07.230Z,68.08
2022-09-17T04:58:35.331Z,68.45
2022-09-17T05:01:03.226Z,68.13
2022-09-17T05:03:31.081Z,68.48
2022-09-17T05:06:00.254Z,67.93
2022-09-17T05:08:28.051Z,67.68
2022-09-17T05:10:56.623Z,68.43
2022-09-17T05:13:24.407Z,68.66
2022-09-17T05:15:52.384Z,67.67
2022-09-17T05:18:20.204Z,68.48
2022-09-17T05:20:48.144Z,67.91
2022-09-17T05:23:17.778Z,68.78
2022-09-17T05:25:45.575Z,67.89
2022-09-17T05:28:13.381Z,68.77
2022-09-17T05:30:41.176Z,69.06
2022-09-17T05:33:09.167Z,67.99
2022-09-17T05:35:37.159Z,68.31
2022-09-17T05:38:07.618Z,68.58
2022-09-17T05:40:37.640Z,69.06
2022-09-17T05:43:07.735Z,69.02
2022-09-17T05:45:37.630Z,68.91
2022-09-17T05:48:11.170Z,68.55
2022-09-17T05:50:39.034Z,68.30
2022-09-17T05:53:08.244Z,68.19
2022-09-17T05:55:37.541Z,68.17
2022-09-17T05:58:11.416Z,67.61
2022-09-17T06:00:39.476Z,67.00
2022-09-17T06:03:07.333Z,68.91
2022-09-17T06:05:35.164Z,67.39
2022-09-17T06:08:03.676Z,67.95
2022-09-17T06:10:31.555Z,67.35
2022-09-17T06:13:01.015Z,67.38
2022-09-17T06:15:29.318Z,67.00
2022-09-17T06:17:57.500Z,66.37
2022-09-17T06:20:25.405Z,66.91
2022-09-17T06:22:57.744Z,66.81
2022-09-17T06:25:26.424Z,67.76
2022-09-17T06:27:54.186Z,67.67
2022-09-17T06:30:23.478Z,67.94
2022-09-17T06:32:51.772Z,67.91
2022-09-17T06:35:20.546Z,68.08
2022-09-17T06:37:48.732Z,69.01
2022-09-17T06:40:17.377Z,68.87
2022-09-17T06:42:45.287Z,68.38
2022-09-17T06:45:16.557Z,68.37
2022-09-17T06:47:46.259Z,68.68
2022-09-17T06:50:14.418Z,69.16
2022-09-17T06:52:49.137Z,68.51
2022-09-17T06:55:17.407Z,69.14
2022-09-17T06:57:45.429Z,69.39
2022-09-17T07:00:15.070Z,68.90
2022-09-17T07:02:43.029Z,69.49
2022-09-17T07:05:12.445Z,68.95
2022-09-17T07:07:40.893Z,69.62
2022-09-17T07:10:09.600Z,69.40
2022-09-17T07:12:41.439Z,69.84
2022-09-17T07:15:11.325Z,69.23
2022-09-17T07:17:39.712Z,68.79
2022-09-17T07:20:08.575Z,68.25
2022-09-17T07:22:38.354Z,68.37
2022-09-17T07:25:07.650Z,68.28
2022-09-17T07:27:35.528Z,67.77
2022-09-17T07:30:03.813Z,69.20
2022-09-17T07:32:32.411Z,69.50
2022-09-17T07:35:00.257Z,68.46
2022-09-17T07:37:30.049Z,67.60
2022-09-17T07:39:59.231Z,67.34
2022-09-17T07:42:27.614Z,68.75
2022-09-17T07:44:59.822Z,69.61
2022-09-17T07:47:29.780Z,69.42
2022-09-17T07:49:57.782Z,69.45
2022-09-17T07:52:25.697Z,69.19
2022-09-17T07:54:53.601Z,68.75
2022-09-17T07:57:22.965Z,69.13
2022-09-17T07:59:50.749Z,69.53
2022-09-17T08:02:23.207Z,69.78
2022-09-17T08:04:52.101Z,69.39
2022-09-17T08:07:19.863Z,70.14
2022-09-17T08:09:47.678Z,70.64
2022-09-17T08:12:15.436Z,70.96
2022-09-17T08:14:44.643Z,70.07
2022-09-17T08:17:13.059Z,69.80
2022-09-17T08:19:40.888Z,68.45
2022-09-17T08:22:08.686Z,68.33
2022-09-17T08:24:36.526Z,67.60
2022-09-17T08:27:04.699Z,68.37
2022-09-17T08:29:35.285Z,68.83
2022-09-17T08:32:06.982Z,69.06
2022-09-17T08:34:36.733Z,69.10
2022-09-17T08:37:04.567Z,69.50
2022-09-17T08:39:32.578Z,69.90
2022-09-17T08:42:09.411Z,68.95
2022-09-17T08:44:42.290Z,69.26
2022-09-17T08:47:18.563Z,68.56
2022-09-17T08:49:52.065Z,67.92
2022-09-17T08:52:50.899Z,68.48
2022-09-17T08:55:34.903Z,68.63
2022-09-17T08:58:20.404Z,69.01
2022-09-17T09:00:55.482Z,68.94
2022-09-17T09:03:37.232Z,70.92
2022-09-17T09:06:10.543Z,69.98
2022-09-17T09:08:44.023Z,70.93
2022-09-17T09:11:17.156Z,70.26
2022-09-17T09:13:48.405Z,70.40
2022-09-17T09:16:18.905Z,67.69
2022-09-17T09:18:52.392Z,67.60
2022-09-17T09:21:28.162Z,67.04
2022-09-17T09:23:58.710Z,66.69
2022-09-17T09:26:41.997Z,66.79
2022-09-17T09:29:20.227Z,66.76
2022-09-17T09:32:17.840Z,66.80
2022-09-17T09:34:49.332Z,65.40
2022-09-17T09:37:21.470Z,66.26
2022-09-17T09:39:52.209Z,64.89
2022-09-17T09:42:29.739Z,65.60
2022-09-17T09:45:04.905Z,66.74
2022-09-17T09:47:47.629Z,67.24
2022-09-17T09:51:01.977Z,67.75
2022-09-17T09:53:32.914Z,68.20
2022-09-17T09:56:16.724Z,69.54
2022-09-17T09:58:44.557Z,69.64
2022-09-17T10:01:15.846Z,68.82
2022-09-17T10:03:46.162Z,68.31
2022-09-17T10:06:17.198Z,69.03
2022-09-17T10:09:13.751Z,68.37
2022-09-17T10:11:42.457Z,69.13
2022-09-17T10:14:24.186Z,67.96
2022-09-17T10:17:11.772Z,67.15
2022-09-17T10:19:39.862Z,63.99
2022-09-17T10:22:27.253Z,59.19
2022-09-17T10:24:57.839Z,60.06
2022-09-17T10:27:27.551Z,57.84
2022-09-17T10:30:04.503Z,57.69
2022-09-17T10:32:32.535Z,53.87
2022-09-17T10:35:04.519Z,53.71
2022-09-17T10:37:37.312Z,54.51
2022-09-17T10:40:27.509Z,55.48
2022-09-17T10:43:20.346Z,55.07
2022-09-17T10:45:58.828Z,51.84
2022-09-17T10:48:29.814Z,51.44
2022-09-17T10:50:58.509Z,54.13
2022-09-17T10:53:28.446Z,53.52
2022-09-17T10:56:06.459Z,51.00
2022-09-17T10:58:46.631Z,48.43
2022-09-17T11:01:29.803Z,53.52
2022-09-17T11:04:26.821Z,57.50
2022-09-17T11:07:22.413Z,61.27
2022-09-17T11:10:00.856Z,59.94
2022-09-17T11:12:38.130Z,56.50
2022-09-17T11:15:22.050Z,54.62
2022-09-17T11:18:19.600Z,53.89
2022-09-17T11:20:59.901Z,56.51
2022-09-17T11:23:52.689Z,57.32
2022-09-17T11:26:33.617Z,58.89
2022-09-17T11:29:17.582Z,57.23
2022-09-17T11:31:55.644Z,55.10
2022-09-17T11:34:29.547Z,51.97
2022-09-17T11:37:06.124Z,51.86
2022-09-17T11:39:39.921Z,50.82
2022-09-17T11:42:16.019Z,53.14
2022-09-17T11:44:51.642Z,54.93
2022-09-17T11:47:24.991Z,57.35
2022-09-17T11:49:58.952Z,58.05
2022-09-17T11:52:31.071Z,58.50
2022-09-17T11:55:03.900Z,57.88
2022-09-17T11:57:37.205Z,57.63
2022-09-17T12:00:08.611Z,57.57
2022-09-17T12:02:53.065Z,55.10
2022-09-17T12:05:25.122Z,53.08
2022-09-17T12:07:57.782Z,49.15
2022-09-17T12:10:38.141Z,48.07
2022-09-17T12:13:18.206Z,48.43
2022-09-17T12:15:53.462Z,48.58
2022-09-17T12:18:38.025Z,50.37
2022-09-17T12:21:10.474Z,54.19
2022-09-17T12:23:43.917Z,54.63
2022-09-17T12:26:22.539Z,57.23
2022-09-17T12:29:01.822Z,55.06
2022-09-17T12:31:36.366Z,57.25
2022-09-17T12:34:21.432Z,59.92
2022-09-17T12:36:57.372Z,61.39
2022-09-17T12:39:53.948Z,61.23
2022-09-17T12:42:35.518Z,56.38
2022-09-17T12:45:21.247Z,56.74
2022-09-17T12:48:24.513Z,60.06
2022-09-17T12:51:03.064Z,63.54
2022-09-17T12:53:36.913Z,63.35
2022-09-17T12:56:17.207Z,63.67
2022-09-17T12:59:05.349Z,63.11
2022-09-17T13:01:41.197Z,61.75
2022-09-17T13:04:43.629Z,61.78
2022-09-17T13:07:51.323Z,59.22
2022-09-17T13:10:40.866Z,60.48
2022-09-17T13:13:26.388Z,58.35
2022-09-17T13:16:00.619Z,58.38
2022-09-17T13:18:36.061Z,57.68
2022-09-17T13:21:14.204Z,56.92
2022-09-17T13:23:44.842Z,57.90
2022-09-17T13:26:17.010Z,56.36
2022-09-17T13:28:47.737Z,54.82
2022-09-17T13:31:21.949Z,54.79
2022-09-17T13:33:54.458Z,53.15
2022-09-17T13:36:41.411Z,52.80
2022-09-17T13:39:30.486Z,53.18
2022-09-17T13:42:04.833Z,52.62
2022-09-17T13:44:36.098Z,53.53
2022-09-17T13:47:18.177Z,55.05
2022-09-17T13:50:03.450Z,55.64
2022-09-17T13:52:44.088Z,54.68
2022-09-17T13:55:32.874Z,56.42
2022-09-17T13:58:01.584Z,56.21
2022-09-17T14:00:49.316Z,56.24
2022-09-17T14:03:51.169Z,55.97
2022-09-17T14:06:53.790Z,54.96
2022-09-17T14:09:51.342Z,53.87
2022-09-17T14:12:52.381Z,51.88
2022-09-17T14:15:36.397Z,52.25
2022-09-17T14:18:25.931Z,52.90
2022-09-17T14:20:55.418Z,53.26
2022-09-17T14:23:25.487Z,54.01
2022-09-17T14:25:56.860Z,52.95
2022-09-17T14:28:33.264Z,55.93
2022-09-17T14:33:56.733Z,56.26
2022-09-17T14:36:25.257Z,56.09
2022-09-17T14:38:57.284Z,54.50
2022-09-17T14:41:27.123Z,55.88
2022-09-17T14:43:58.694Z,57.26
2022-09-17T14:46:32.810Z,59.92
2022-09-17T14:49:15.897Z,61.80
2022-09-17T14:51:43.990Z,62.19
2022-09-17T14:54:19.314Z,60.58
2022-09-17T14:56:50.852Z,59.17
2022-09-17T14:59:23.959Z,57.10
2022-09-17T15:01:51.905Z,56.79
2022-09-17T15:04:22.736Z,55.48
2022-09-17T15:06:51.633Z,53.84
2022-09-17T15:09:26.228Z,53.51
2022-09-17T15:11:56.552Z,53.65
2022-09-17T15:14:31.821Z,53.48
2022-09-17T15:17:01.988Z,54.81
2022-09-17T15:19:35.846Z,53.48
2022-09-17T15:22:09.147Z,53.64
2022-09-17T15:24:43.872Z,52.80
2022-09-17T15:27:18.525Z,51.83
2022-09-17T15:29:51.319Z,52.00
2022-09-17T15:32:19.614Z,51.79
2022-09-17T15:35:18.306Z,52.18
2022-09-17T15:38:11.528Z,51.23
2022-09-17T15:40:39.312Z,51.29
2022-09-17T15:43:18.078Z,52.39
2022-09-17T15:45:46.295Z,51.89
2022-09-17T15:48:36.026Z,51.77
2022-09-17T15:51:05.470Z,53.42
2022-09-17T15:53:35.173Z,53.80
2022-09-17T15:56:07.432Z,54.00
2022-09-17T15:58:50.414Z,55.54
2022-09-17T16:01:53.997Z,53.91
2022-09-17T16:04:30.261Z,55.04
2022-09-17T16:07:17.792Z,55.21
2022-09-17T16:09:49.078Z,53.93
2022-09-17T16:12:22.310Z,54.68
2022-09-17T16:14:52.978Z,55.51
2022-09-17T16:17:42.999Z,55.21
2022-09-17T16:20:16.860Z,56.89
2022-09-17T16:22:45.502Z,57.69
2022-09-17T16:25:13.358Z,57.13
2022-09-17T16:27:50.287Z,57.48
2022-09-17T16:30:20.328Z,57.72
2022-09-17T16:32:48.526Z,57.32
2022-09-17T16:35:18.092Z,57.46
2022-09-17T16:37:48.829Z,57.60
2022-09-17T16:40:17.154Z,58.09
2022-09-17T16:42:46.928Z,57.50
2022-09-17T16:45:15.499Z,58.29
2022-09-17T16:47:44.891Z,57.86
2022-09-17T16:50:15.561Z,57.96
2022-09-17T16:52:43.866Z,57.46
2022-09-17T16:55:13.329Z,57.34
2022-09-17T16:57:41.221Z,56.94
2022-09-17T17:00:14.239Z,56.59
2022-09-17T17:02:42.101Z,56.70
2022-09-17T17:05:10.637Z,56.74
2022-09-17T17:07:38.800Z,56.87
2022-09-17T17:10:09.091Z,57.55
2022-09-17T17:12:37.736Z,56.88
2022-09-17T17:15:07.020Z,57.30
2022-09-17T17:17:36.847Z,56.72
2022-09-17T17:20:07.991Z,56.70
2022-09-17T17:22:37.005Z,57.37
2022-09-17T17:25:05.609Z,57.70
2022-09-17T17:27:33.446Z,57.88
2022-09-17T17:30:02.239Z,58.03
2022-09-17T17:32:30.080Z,58.42
2022-09-17T17:34:59.298Z,59.07
2022-09-17T17:37:27.010Z,59.13
2022-09-17T17:39:54.835Z,59.06
2022-09-17T17:42:22.671Z,59.54
2022-09-17T17:44:50.423Z,58.82
2022-09-17T17:47:18.232Z,59.00
2022-09-17T17:49:46.082Z,59.16
2022-09-17T17:52:15.207Z,59.57
2022-09-17T17:54:42.987Z,59.07
2022-09-17T17:57:11.427Z,58.92
2022-09-17T17:59:39.316Z,59.61
2022-09-17T18:02:07.633Z,60.17
2022-09-17T18:04:35.581Z,59.59
2022-09-17T18:07:03.359Z,58.95
2022-09-17T18:09:32.480Z,58.41
2022-09-17T18:12:00.449Z,60.80
2022-09-17T18:14:28.248Z,61.61
2022-09-17T18:16:56.123Z,62.03
2022-09-17T18:19:23.961Z,61.17
2022-09-17T18:21:51.878Z,61.05
2022-09-17T18:24:19.727Z,61.73
2022-09-17T18:26:48.856Z,61.65
2022-09-17T18:29:16.671Z,61.64
2022-09-17T18:31:46.391Z,61.57
2022-09-17T18:34:16.857Z,61.55
2022-09-17T18:36:50.791Z,62.43
2022-09-17T18:42:09.831Z,61.80
2022-09-17T18:44:37.692Z,62.85
2022-09-17T18:47:05.606Z,62.15
2022-09-17T18:49:33.619Z,62.39
2022-09-17T18:52:01.460Z,62.95
2022-09-17T18:54:29.275Z,64.00
2022-09-17T18:56:57.054Z,63.63
2022-09-17T18:59:26.245Z,64.22
2022-09-17T19:01:54.090Z,63.75
2022-09-17T19:04:22.674Z,63.92
2022-09-17T19:06:50.467Z,64.87
2022-09-17T19:09:18.449Z,66.11
2022-09-17T19:11:46.266Z,66.09
2022-09-17T19:14:14.120Z,65.08
2022-09-17T19:16:43.268Z,64.37
2022-09-17T19:19:11.524Z,64.37
2022-09-17T19:21:39.331Z,63.84
2022-09-17T19:24:07.507Z,63.67
2022-09-17T19:26:35.310Z,63.86
2022-09-17T19:29:03.131Z,63.42
2022-09-17T19:31:31.164Z,64.26
2022-09-17T19:34:00.461Z,63.72
2022-09-17T19:36:29.014Z,63.27
2022-09-17T19:38:58.577Z,63.50
2022-09-17T19:41:26.777Z,63.67
2022-09-17T19:43:56.895Z,63.83
2022-09-17T19:46:26.829Z,63.45
2022-09-17T19:48:56.439Z,62.57
2022-09-17T19:51:28.333Z,62.14
2022-09-17T19:53:56.974Z,62.35
2022-09-17T19:56:27.097Z,62.16
2022-09-17T19:58:55.233Z,61.71
2022-09-17T20:01:23.278Z,61.90
2022-09-17T20:03:53.206Z,61.52
2022-09-17T20:06:23.320Z,61.87
2022-09-17T20:08:54.665Z,62.13
2022-09-17T20:11:24.661Z,61.97
2022-09-17T20:13:57.643Z,62.66
2022-09-17T20:16:25.507Z,62.10
2022-09-17T20:18:53.569Z,61.91
2022-09-17T20:21:23.643Z,62.20
2022-09-17T20:23:53.085Z,62.16
2022-09-17T20:26:21.848Z,61.96
2022-09-17T20:28:51.078Z,61.99
2022-09-17T20:31:21.871Z,62.01
2022-09-17T20:33:52.860Z,61.63
2022-09-17T20:36:22.095Z,62.40
2022-09-17T20:41:40.654Z,61.50
2022-09-17T20:44:08.778Z,61.72
2022-09-17T20:46:36.609Z,61.86
2022-09-17T20:49:05.344Z,61.13
2022-09-17T20:51:34.058Z,61.42
2022-09-17T20:54:02.888Z,61.99
2022-09-17T20:56:33.324Z,61.42
2022-09-17T20:59:08.747Z,61.88
2022-09-17T21:01:38.087Z,60.76
2022-09-17T21:04:07.803Z,60.85
2022-09-17T21:06:37.104Z,60.56
2022-09-17T21:09:05.999Z,60.93
2022-09-17T21:11:34.676Z,61.48
2022-09-17T21:14:03.971Z,62.68
2022-09-17T21:16:32.175Z,62.69
2022-09-17T21:19:01.794Z,63.42
2022-09-17T21:21:30.354Z,63.83
2022-09-17T21:24:01.084Z,63.84
2022-09-17T21:26:29.581Z,64.42
2022-09-17T21:28:58.401Z,65.10
2022-09-17T21:31:32.346Z,65.25
2022-09-17T21:34:03.322Z,65.27
2022-09-17T21:36:33.109Z,65.17
2022-09-17T21:39:02.265Z,64.83
2022-09-17T21:41:30.620Z,65.89
2022-09-17T21:43:58.687Z,65.78
2022-09-17T21:46:30.302Z,66.42
2022-09-17T21:49:00.078Z,67.89
2022-09-17T21:51:30.560Z,67.83
2022-09-17T21:54:00.901Z,68.16
2022-09-17T21:56:29.560Z,67.59
2022-09-17T21:58:58.863Z,67.42
2022-09-17T22:01:32.120Z,67.09
2022-09-17T22:04:02.058Z,67.72
2022-09-17T22:06:32.099Z,67.53
2022-09-17T22:09:02.087Z,68.59
2022-09-17T22:11:33.739Z,68.17
2022-09-17T22:14:05.202Z,68.77
2022-09-17T22:16:36.066Z,68.76
2022-09-17T22:19:05.688Z,69.76
2022-09-17T22:21:36.091Z,70.15
2022-09-17T22:24:05.847Z,69.43
2022-09-17T22:26:36.243Z,69.77
2022-09-17T22:29:06.760Z,69.26
2022-09-17T22:31:36.762Z,70.12
2022-09-17T22:34:08.677Z,70.46
2022-09-17T22:36:36.946Z,69.95
2022-09-17T22:39:06.662Z,69.74
2022-09-17T22:41:36.697Z,69.70
2022-09-17T22:44:06.587Z,70.09
2022-09-17T22:46:39.374Z,70.20
2022-09-17T22:49:07.946Z,70.75
2022-09-17T22:51:35.848Z,70.13
2022-09-17T22:54:04.052Z,70.81
2022-09-17T22:56:31.884Z,70.22
2022-09-17T22:59:00.162Z,70.82
2022-09-17T23:01:29.902Z,71.02
2022-09-17T23:04:00.283Z,70.79
2022-09-17T23:06:30.411Z,71.21
2022-09-17T23:08:59.296Z,70.96
2022-09-17T23:11:28.876Z,71.26
2022-09-17T23:13:58.554Z,70.84
2022-09-17T23:16:26.740Z,71.93
2022-09-17T23:18:55.086Z,70.91
2022-09-17T23:21:24.256Z,71.14
2022-09-17T23:23:52.441Z,71.15
2022-09-17T23:26:22.906Z,71.38
2022-09-17T23:28:51.708Z,71.68
2022-09-17T23:31:23.742Z,71.31
2022-09-17T23:33:52.246Z,71.30
2022-09-17T23:36:22.403Z,70.60
2022-09-17T23:38:52.764Z,72.16
2022-09-17T23:41:22.953Z,71.50
2022-09-17T23:43:52.568Z,71.70
2022-09-17T23:46:22.214Z,71.19
2022-09-17T23:48:51.295Z,70.79
2022-09-17T23:51:19.187Z,71.90
2022-09-17T23:53:48.049Z,72.28
2022-09-17T23:56:19.112Z,71.99
2022-09-17T23:58:46.925Z,71.56
